sensor_id;sensor_type;location;lat;lon;timestamp;pressure;altitude;pressure_sealevel;temperature;humidity
35778;BME280;21899;42.662;23.316;2023-03-07T00:01:56;93637.84;;;7.59;69.19
35778;BME280;21899;42.662;23.316;2023-03-07T00:04:22;93599.41;;;7.67;67.71
35778;BME280;21899;42.662;23.316;2023-03-07T00:06:47;93609.66;;;7.79;66.69
35778;BME280;21899;42.662;23.316;2023-03-07T00:09:12;93637.00;;;7.97;66.70
35778;BME280;21899;42.662;23.316;2023-03-07T00:11:38;93621.75;;;8.02;67.02
35778;BME280;21899;42.662;23.316;2023-03-07T00:14:07;93609.59;;;8.01;65.95
35778;BME280;21899;42.662;23.316;2023-03-07T00:16:32;93609.97;;;8.03;67.06
35778;BME280;21899;42.662;23.316;2023-03-07T00:18:58;93613.75;;;8.02;66.67
35778;BME280;21899;42.662;23.316;2023-03-07T00:21:24;93615.72;;;7.87;68.26
35778;BME280;21899;42.662;23.316;2023-03-07T00:23:55;93615.34;;;7.81;68.70
35778;BME280;21899;42.662;23.316;2023-03-07T00:26:25;93608.50;;;7.80;67.20
35778;BME280;21899;42.662;23.316;2023-03-07T00:28:52;93607.75;;;7.76;68.24
35778;BME280;21899;42.662;23.316;2023-03-07T00:31:18;93599.78;;;7.62;69.06
35778;BME280;21899;42.662;23.316;2023-03-07T00:33:44;93597.13;;;7.62;69.14
35778;BME280;21899;42.662;23.316;2023-03-07T00:36:16;93607.38;;;7.64;70.11
35778;BME280;21899;42.662;23.316;2023-03-07T00:38:42;93589.94;;;7.38;70.79
35778;BME280;21899;42.662;23.316;2023-03-07T00:41:13;93597.56;;;7.43;71.22
35778;BME280;21899;42.662;23.316;2023-03-07T00:43:39;93599.06;;;7.37;70.67
35778;BME280;21899;42.662;23.316;2023-03-07T00:46:05;93608.19;;;7.47;70.83
35778;BME280;21899;42.662;23.316;2023-03-07T00:48:32;93596.78;;;7.39;71.37
35778;BME280;21899;42.662;23.316;2023-03-07T00:50:58;93588.81;;;7.36;70.95
35778;BME280;21899;42.662;23.316;2023-03-07T00:53:24;93608.94;;;7.54;70.46
35778;BME280;21899;42.662;23.316;2023-03-07T00:55:59;93604.34;;;7.62;69.86
35778;BME280;21899;42.662;23.316;2023-03-07T00:58:27;93595.25;;;7.49;70.39
35778;BME280;21899;42.662;23.316;2023-03-07T01:00:53;93597.50;;;7.57;69.36
35778;BME280;21899;42.662;23.316;2023-03-07T01:03:18;93605.16;;;7.52;69.50
35778;BME280;21899;42.662;23.316;2023-03-07T01:05:44;93580.47;;;7.30;70.15
35778;BME280;21899;42.662;23.316;2023-03-07T01:08:10;93579.69;;;7.33;70.75
35778;BME280;21899;42.662;23.316;2023-03-07T01:10:35;93585.41;;;7.21;71.48
35778;BME280;21899;42.662;23.316;2023-03-07T01:13:01;93586.56;;;7.17;71.78
35778;BME280;21899;42.662;23.316;2023-03-07T01:15:26;93588.09;;;7.07;72.42
35778;BME280;21899;42.662;23.316;2023-03-07T01:17:52;93585.41;;;7.07;72.75
35778;BME280;21899;42.662;23.316;2023-03-07T01:20:18;93577.44;;;7.07;72.60
35778;BME280;21899;42.662;23.316;2023-03-07T01:22:43;93574.38;;;7.05;72.08
35778;BME280;21899;42.662;23.316;2023-03-07T01:25:09;93547.41;;;7.03;72.57
35778;BME280;21899;42.662;23.316;2023-03-07T01:27:34;93566.00;;;7.17;72.76
35778;BME280;21899;42.662;23.316;2023-03-07T01:30:00;93552.69;;;7.21;71.34
35778;BME280;21899;42.662;23.316;2023-03-07T01:32:25;93551.19;;;7.30;71.24
35778;BME280;21899;42.662;23.316;2023-03-07T01:34:50;93555.34;;;7.31;70.71
35778;BME280;21899;42.662;23.316;2023-03-07T01:37:16;93552.69;;;7.24;70.96
35778;BME280;21899;42.662;23.316;2023-03-07T01:39:43;93559.16;;;7.27;70.87
35778;BME280;21899;42.662;23.316;2023-03-07T01:42:08;93551.56;;;7.18;72.24
35778;BME280;21899;42.662;23.316;2023-03-07T01:44:57;93555.00;;;7.15;72.09
35778;BME280;21899;42.662;23.316;2023-03-07T01:47:22;93549.69;;;7.12;71.38
35778;BME280;21899;42.662;23.316;2023-03-07T01:49:48;93550.44;;;7.05;71.76
35778;BME280;21899;42.662;23.316;2023-03-07T01:52:17;93555.00;;;7.15;71.13
35778;BME280;21899;42.662;23.316;2023-03-07T01:54:48;93558.03;;;7.17;70.51
35778;BME280;21899;42.662;23.316;2023-03-07T01:57:17;93566.75;;;7.25;71.11
35778;BME280;21899;42.662;23.316;2023-03-07T01:59:45;93561.06;;;7.23;70.23
35778;BME280;21899;42.662;23.316;2023-03-07T02:02:15;93558.03;;;7.10;70.88
35778;BME280;21899;42.662;23.316;2023-03-07T02:04:46;93557.66;;;7.12;70.44
35778;BME280;21899;42.662;23.316;2023-03-07T02:07:15;93550.06;;;6.96;71.54
35778;BME280;21899;42.662;23.316;2023-03-07T02:09:42;93567.91;;;7.03;71.22
35778;BME280;21899;42.662;23.316;2023-03-07T02:12:09;93556.53;;;7.02;71.13
35778;BME280;21899;42.662;23.316;2023-03-07T02:14:35;93558.03;;;7.07;70.67
35778;BME280;21899;42.662;23.316;2023-03-07T02:17:00;93555.78;;;7.05;70.32
35778;BME280;21899;42.662;23.316;2023-03-07T02:22:11;93562.59;;;6.99;71.19
35778;BME280;21899;42.662;23.316;2023-03-07T02:24:47;93558.03;;;7.10;71.25
35778;BME280;21899;42.662;23.316;2023-03-07T02:27:15;93547.41;;;7.07;70.82
35778;BME280;21899;42.662;23.316;2023-03-07T02:29:40;93547.75;;;7.16;70.52
35778;BME280;21899;42.662;23.316;2023-03-07T02:32:06;93541.69;;;7.08;70.60
35778;BME280;21899;42.662;23.316;2023-03-07T02:34:32;93544.75;;;7.10;71.13
35778;BME280;21899;42.662;23.316;2023-03-07T02:39:29;93562.94;;;7.29;70.70
35778;BME280;21899;42.662;23.316;2023-03-07T02:41:57;93550.41;;;7.30;70.60
35778;BME280;21899;42.662;23.316;2023-03-07T02:44:24;93555.72;;;7.33;69.77
35778;BME280;21899;42.662;23.316;2023-03-07T02:46:50;93556.47;;;7.34;69.10
35778;BME280;21899;42.662;23.316;2023-03-07T02:49:15;93557.22;;;7.41;69.75
35778;BME280;21899;42.662;23.316;2023-03-07T02:51:42;93564.06;;;7.42;69.21
35778;BME280;21899;42.662;23.316;2023-03-07T02:54:08;93564.84;;;7.46;69.46
35778;BME280;21899;42.662;23.316;2023-03-07T02:56:33;93552.69;;;7.24;70.00
35778;BME280;21899;42.662;23.316;2023-03-07T02:58:58;93562.56;;;7.31;70.41
35778;BME280;21899;42.662;23.316;2023-03-07T03:01:24;93546.59;;;7.27;70.28
35778;BME280;21899;42.662;23.316;2023-03-07T03:03:49;93558.78;;;7.28;70.34
35778;BME280;21899;42.662;23.316;2023-03-07T03:06:15;93542.44;;;7.30;70.55
35778;BME280;21899;42.662;23.316;2023-03-07T03:08:40;93561.44;;;7.35;69.69
35778;BME280;21899;42.662;23.316;2023-03-07T03:11:06;93540.94;;;7.18;70.74
35778;BME280;21899;42.662;23.316;2023-03-07T03:13:31;93534.47;;;7.05;71.88
35778;BME280;21899;42.662;23.316;2023-03-07T03:15:57;93543.22;;;7.02;71.88
35778;BME280;21899;42.662;23.316;2023-03-07T03:18:23;93558.44;;;7.05;71.54
35778;BME280;21899;42.662;23.316;2023-03-07T03:20:51;93538.66;;;7.06;71.27
35778;BME280;21899;42.662;23.316;2023-03-07T03:23:16;93545.88;;;7.09;71.31
35778;BME280;21899;42.662;23.316;2023-03-07T03:25:42;93553.09;;;7.12;71.64
35778;BME280;21899;42.662;23.316;2023-03-07T03:28:07;93545.09;;;7.26;70.66
35778;BME280;21899;42.662;23.316;2023-03-07T03:30:32;93545.09;;;7.33;71.09
35778;BME280;21899;42.662;23.316;2023-03-07T03:33:03;93539.00;;;7.29;70.64
35778;BME280;21899;42.662;23.316;2023-03-07T03:35:28;93548.91;;;7.29;70.84
35778;BME280;21899;42.662;23.316;2023-03-07T03:37:54;93545.84;;;7.30;70.85
35778;BME280;21899;42.662;23.316;2023-03-07T03:40:20;93551.91;;;7.31;70.91
35778;BME280;21899;42.662;23.316;2023-03-07T03:42:45;93560.66;;;7.42;70.52
35778;BME280;21899;42.662;23.316;2023-03-07T03:45:12;93551.53;;;7.43;70.05
35778;BME280;21899;42.662;23.316;2023-03-07T03:47:39;93554.19;;;7.46;70.56
35778;BME280;21899;42.662;23.316;2023-03-07T03:50:05;93562.94;;;7.43;70.03
35778;BME280;21899;42.662;23.316;2023-03-07T03:52:30;93570.50;;;7.55;70.37
35778;BME280;21899;42.662;23.316;2023-03-07T03:54:56;93561.78;;;7.58;69.54
35778;BME280;21899;42.662;23.316;2023-03-07T03:57:21;93565.56;;;7.50;69.84
35778;BME280;21899;42.662;23.316;2023-03-07T03:59:46;93562.56;;;7.34;69.97
35778;BME280;21899;42.662;23.316;2023-03-07T04:02:12;93560.28;;;7.26;70.90
35778;BME280;21899;42.662;23.316;2023-03-07T04:04:37;93567.53;;;7.25;71.16
35778;BME280;21899;42.662;23.316;2023-03-07T04:07:03;93562.59;;;7.24;71.52
35778;BME280;21899;42.662;23.316;2023-03-07T04:09:30;93554.22;;;7.15;71.81
35778;BME280;21899;42.662;23.316;2023-03-07T04:11:56;93556.13;;;7.14;72.09
35778;BME280;21899;42.662;23.316;2023-03-07T04:14:21;93563.34;;;7.24;71.80
35778;BME280;21899;42.662;23.316;2023-03-07T04:16:47;93564.84;;;7.32;71.70
35778;BME280;21899;42.662;23.316;2023-03-07T04:19:12;93559.53;;;7.32;71.10
35778;BME280;21899;42.662;23.316;2023-03-07T04:21:38;93565.22;;;7.41;70.91
35778;BME280;21899;42.662;23.316;2023-03-07T04:24:06;93571.28;;;7.45;71.03
35778;BME280;21899;42.662;23.316;2023-03-07T04:26:33;93559.50;;;7.50;70.98
35778;BME280;21899;42.662;23.316;2023-03-07T04:28:58;93550.75;;;7.49;69.92
35778;BME280;21899;42.662;23.316;2023-03-07T04:31:25;93559.13;;;7.44;70.69
35778;BME280;21899;42.662;23.316;2023-03-07T04:33:54;93565.63;;;7.33;70.86
35778;BME280;21899;42.662;23.316;2023-03-07T04:36:21;93580.03;;;7.42;70.43
35778;BME280;21899;42.662;23.316;2023-03-07T04:38:47;93581.53;;;7.50;70.47
35778;BME280;21899;42.662;23.316;2023-03-07T04:41:21;93571.31;;;7.42;70.91
35778;BME280;21899;42.662;23.316;2023-03-07T04:43:47;93585.00;;;7.40;70.90
35778;BME280;21899;42.662;23.316;2023-03-07T04:46:14;93588.03;;;7.42;71.15
35778;BME280;21899;42.662;23.316;2023-03-07T04:48:40;93591.84;;;7.48;71.74
35778;BME280;21899;42.662;23.316;2023-03-07T04:51:06;93597.91;;;7.45;71.84
35778;BME280;21899;42.662;23.316;2023-03-07T04:53:31;93591.84;;;7.34;72.60
35778;BME280;21899;42.662;23.316;2023-03-07T04:55:58;93584.66;;;7.10;74.52
35778;BME280;21899;42.662;23.316;2023-03-07T04:58:24;93577.81;;;6.99;75.25
35778;BME280;21899;42.662;23.316;2023-03-07T05:00:49;93583.53;;;7.01;75.32
35778;BME280;21899;42.662;23.316;2023-03-07T05:03:15;93595.69;;;7.12;75.24
35778;BME280;21899;42.662;23.316;2023-03-07T05:05:40;93600.59;;;7.24;75.16
35778;BME280;21899;42.662;23.316;2023-03-07T05:08:06;93579.72;;;7.12;75.20
35778;BME280;21899;42.662;23.316;2023-03-07T05:10:32;93600.63;;;7.07;76.29
35778;BME280;21899;42.662;23.316;2023-03-07T05:12:58;93599.84;;;7.17;76.10
35778;BME280;21899;42.662;23.316;2023-03-07T05:15:23;93583.88;;;7.10;75.94
35778;BME280;21899;42.662;23.316;2023-03-07T05:17:49;93602.53;;;7.20;75.97
35778;BME280;21899;42.662;23.316;2023-03-07T05:20:14;93577.78;;;7.23;76.05
35778;BME280;21899;42.662;23.316;2023-03-07T05:22:40;93595.28;;;7.31;77.02
35778;BME280;21899;42.662;23.316;2023-03-07T05:25:05;93593.38;;;7.28;76.29
35778;BME280;21899;42.662;23.316;2023-03-07T05:27:31;93598.31;;;7.40;75.93
35778;BME280;21899;42.662;23.316;2023-03-07T05:29:56;93599.06;;;7.55;75.86
35778;BME280;21899;42.662;23.316;2023-03-07T05:32:22;93596.00;;;7.56;76.12
35778;BME280;21899;42.662;23.316;2023-03-07T05:34:47;93586.13;;;7.36;76.89
35778;BME280;21899;42.662;23.316;2023-03-07T05:37:13;93587.28;;;7.38;77.10
35778;BME280;21899;42.662;23.316;2023-03-07T05:39:38;93606.66;;;7.60;77.31
35778;BME280;21899;42.662;23.316;2023-03-07T05:42:04;93592.56;;;7.63;76.94
35778;BME280;21899;42.662;23.316;2023-03-07T05:44:30;93613.84;;;7.73;75.67
35778;BME280;21899;42.662;23.316;2023-03-07T05:46:55;93610.06;;;7.67;75.73
35778;BME280;21899;42.662;23.316;2023-03-07T05:49:21;93602.09;;;7.53;76.65
35778;BME280;21899;42.662;23.316;2023-03-07T05:51:46;93617.28;;;7.67;76.85
35778;BME280;21899;42.662;23.316;2023-03-07T05:54:11;93619.53;;;7.75;75.86
35778;BME280;21899;42.662;23.316;2023-03-07T05:56:37;93616.09;;;7.85;75.14
35778;BME280;21899;42.662;23.316;2023-03-07T05:59:03;93625.56;;;7.97;75.22
35778;BME280;21899;42.662;23.316;2023-03-07T06:01:31;93605.09;;;7.69;75.37
35778;BME280;21899;42.662;23.316;2023-03-07T06:03:57;93605.13;;;7.62;76.59
35778;BME280;21899;42.662;23.316;2023-03-07T06:06:22;93611.94;;;7.74;75.60
35778;BME280;21899;42.662;23.316;2023-03-07T06:08:48;93612.31;;;7.86;75.78
35778;BME280;21899;42.662;23.316;2023-03-07T06:11:13;93610.00;;;7.88;75.37
35778;BME280;21899;42.662;23.316;2023-03-07T06:13:38;93620.25;;;7.93;75.52
35778;BME280;21899;42.662;23.316;2023-03-07T06:16:04;93627.44;;;8.14;74.81
35778;BME280;21899;42.662;23.316;2023-03-07T06:18:29;93620.16;;;8.22;74.28
35778;BME280;21899;42.662;23.316;2023-03-07T06:21:00;93606.47;;;8.20;73.48
35778;BME280;21899;42.662;23.316;2023-03-07T06:23:27;93623.91;;;8.42;73.67
35778;BME280;21899;42.662;23.316;2023-03-07T06:25:53;93623.44;;;8.61;72.51
35778;BME280;21899;42.662;23.316;2023-03-07T06:28:19;93617.72;;;8.66;71.10
35778;BME280;21899;42.662;23.316;2023-03-07T06:30:45;93619.16;;;8.77;70.78
35778;BME280;21899;42.662;23.316;2023-03-07T06:33:10;93628.50;;;9.03;69.35
35778;BME280;21899;42.662;23.316;2023-03-07T06:35:39;93622.38;;;9.06;68.75
35778;BME280;21899;42.662;23.316;2023-03-07T06:38:06;93628.50;;;9.06;69.06
35778;BME280;21899;42.662;23.316;2023-03-07T06:40:31;93632.59;;;9.18;68.07
35778;BME280;21899;42.662;23.316;2023-03-07T06:42:57;93640.16;;;9.30;67.63
35778;BME280;21899;42.662;23.316;2023-03-07T06:45:22;93638.50;;;9.43;67.11
35778;BME280;21899;42.662;23.316;2023-03-07T06:47:47;93642.28;;;9.49;66.05
35778;BME280;21899;42.662;23.316;2023-03-07T06:50:13;93643.72;;;9.57;65.69
35778;BME280;21899;42.662;23.316;2023-03-07T06:52:38;93646.81;;;9.52;65.68
35778;BME280;21899;42.662;23.316;2023-03-07T06:55:04;93649.56;;;9.45;65.85
35778;BME280;21899;42.662;23.316;2023-03-07T06:57:30;93645.34;;;9.48;65.84
35778;BME280;21899;42.662;23.316;2023-03-07T06:59:57;93652.09;;;9.63;65.89
35778;BME280;21899;42.662;23.316;2023-03-07T07:02:22;93646.75;;;9.59;66.19
35778;BME280;21899;42.662;23.316;2023-03-07T07:04:48;93637.47;;;9.74;65.62
35778;BME280;21899;42.662;23.316;2023-03-07T07:07:13;93642.53;;;10.02;63.98
35778;BME280;21899;42.662;23.316;2023-03-07T07:09:38;93629.53;;;10.04;62.51
35778;BME280;21899;42.662;23.316;2023-03-07T07:12:04;93641.06;;;9.98;63.02
35778;BME280;21899;42.662;23.316;2023-03-07T07:14:30;93636.63;;;9.84;62.97
35778;BME280;21899;42.662;23.316;2023-03-07T07:16:56;93625.81;;;9.95;62.80
35778;BME280;21899;42.662;23.316;2023-03-07T07:19:22;93629.53;;;10.08;62.51
35778;BME280;21899;42.662;23.316;2023-03-07T07:21:47;93637.78;;;10.20;61.82
35778;BME280;21899;42.662;23.316;2023-03-07T07:24:12;93641.31;;;10.47;61.23
35778;BME280;21899;42.662;23.316;2023-03-07T07:26:38;93644.59;;;10.59;60.27
35778;BME280;21899;42.662;23.316;2023-03-07T07:29:03;93649.81;;;10.39;60.72
35778;BME280;21899;42.662;23.316;2023-03-07T07:31:29;93640.59;;;10.40;60.92
35778;BME280;21899;42.662;23.316;2023-03-07T07:33:54;93653.78;;;10.58;60.46
35778;BME280;21899;42.662;23.316;2023-03-07T07:36:20;93644.22;;;10.57;60.36
35778;BME280;21899;42.662;23.316;2023-03-07T07:38:47;93657.56;;;10.60;60.38
35778;BME280;21899;42.662;23.316;2023-03-07T07:41:13;93653.47;;;10.52;60.79
35778;BME280;21899;42.662;23.316;2023-03-07T07:43:39;93655.44;;;10.78;60.78
35778;BME280;21899;42.662;23.316;2023-03-07T07:46:06;93653.88;;;11.34;59.15
35778;BME280;21899;42.662;23.316;2023-03-07T07:48:31;93653.69;;;11.71;57.44
35778;BME280;21899;42.662;23.316;2023-03-07T07:51:01;93651.31;;;12.00;55.21
35778;BME280;21899;42.662;23.316;2023-03-07T07:53:26;93659.97;;;11.84;54.85
35778;BME280;21899;42.662;23.316;2023-03-07T07:55:52;93661.28;;;11.49;54.99
35778;BME280;21899;42.662;23.316;2023-03-07T07:58:17;93652.47;;;11.26;55.17
35778;BME280;21899;42.662;23.316;2023-03-07T08:00:43;93667.97;;;11.64;54.82
35778;BME280;21899;42.662;23.316;2023-03-07T08:03:09;93661.09;;;12.10;53.57
35778;BME280;21899;42.662;23.316;2023-03-07T08:05:35;93658.00;;;12.50;51.94
35778;BME280;21899;42.662;23.316;2023-03-07T08:08:00;93658.22;;;12.79;50.27
35778;BME280;21899;42.662;23.316;2023-03-07T08:10:25;93654.72;;;12.62;49.55
35778;BME280;21899;42.662;23.316;2023-03-07T08:12:51;93650.72;;;12.70;49.56
35778;BME280;21899;42.662;23.316;2023-03-07T08:15:17;93661.72;;;12.37;50.16
35778;BME280;21899;42.662;23.316;2023-03-07T08:17:43;93652.78;;;12.43;50.72
35778;BME280;21899;42.662;23.316;2023-03-07T08:20:09;93647.69;;;12.29;49.97
35778;BME280;21899;42.662;23.316;2023-03-07T08:22:38;93655.59;;;12.36;50.38
35778;BME280;21899;42.662;23.316;2023-03-07T08:25:06;93660.88;;;12.40;50.14
35778;BME280;21899;42.662;23.316;2023-03-07T08:27:32;93658.97;;;12.40;50.54
35778;BME280;21899;42.662;23.316;2023-03-07T08:29:59;93648.50;;;12.26;49.63
35778;BME280;21899;42.662;23.316;2023-03-07T08:32:26;93661.19;;;12.45;49.37
35778;BME280;21899;42.662;23.316;2023-03-07T08:34:51;93655.50;;;12.59;49.50
35778;BME280;21899;42.662;23.316;2023-03-07T08:37:17;93646.78;;;12.55;49.74
35778;BME280;21899;42.662;23.316;2023-03-07T08:39:42;93659.72;;;12.60;49.71
35778;BME280;21899;42.662;23.316;2023-03-07T08:42:08;93649.34;;;12.62;49.79
35778;BME280;21899;42.662;23.316;2023-03-07T08:44:33;93655.78;;;12.84;49.35
35778;BME280;21899;42.662;23.316;2023-03-07T08:46:58;93649.66;;;12.84;49.14
35778;BME280;21899;42.662;23.316;2023-03-07T08:49:24;93663.78;;;12.49;49.18
35778;BME280;21899;42.662;23.316;2023-03-07T08:51:49;93651.78;;;12.14;49.73
35778;BME280;21899;42.662;23.316;2023-03-07T08:54:15;93650.09;;;12.24;49.33
35778;BME280;21899;42.662;23.316;2023-03-07T08:56:40;93641.84;;;12.34;48.84
35778;BME280;21899;42.662;23.316;2023-03-07T08:59:06;93649.59;;;12.29;49.97
35778;BME280;21899;42.662;23.316;2023-03-07T09:01:31;93647.47;;;12.20;49.13
35778;BME280;21899;42.662;23.316;2023-03-07T09:03:57;93636.34;;;11.99;49.38
35778;BME280;21899;42.662;23.316;2023-03-07T09:06:22;93643.56;;;12.02;49.39
35778;BME280;21899;42.662;23.316;2023-03-07T09:08:48;93648.63;;;12.19;48.24
35778;BME280;21899;42.662;23.316;2023-03-07T09:11:16;93645.72;;;12.10;48.68
35778;BME280;21899;42.662;23.316;2023-03-07T09:13:42;93638.22;;;12.02;48.79
35778;BME280;21899;42.662;23.316;2023-03-07T09:16:08;93640.31;;;12.14;48.47
35778;BME280;21899;42.662;23.316;2023-03-07T09:18:34;93630.81;;;12.09;47.86
35778;BME280;21899;42.662;23.316;2023-03-07T09:21:01;93638.91;;;12.06;47.88
35778;BME280;21899;42.662;23.316;2023-03-07T09:23:27;93641.56;;;12.29;47.83
35778;BME280;21899;42.662;23.316;2023-03-07T09:25:53;93636.78;;;12.36;47.40
35778;BME280;21899;42.662;23.316;2023-03-07T09:28:18;93630.63;;;12.39;48.15
35778;BME280;21899;42.662;23.316;2023-03-07T09:30:44;93629.38;;;12.24;47.72
35778;BME280;21899;42.662;23.316;2023-03-07T09:33:09;93626.47;;;12.15;47.80
35778;BME280;21899;42.662;23.316;2023-03-07T09:35:36;93633.22;;;12.23;47.32
35778;BME280;21899;42.662;23.316;2023-03-07T09:38:02;93625.59;;;12.41;47.16
35778;BME280;21899;42.662;23.316;2023-03-07T09:40:27;93621.88;;;12.55;46.07
35778;BME280;21899;42.662;23.316;2023-03-07T09:50:58;93607.44;;;12.84;45.24
35778;BME280;21899;42.662;23.316;2023-03-07T09:56:20;93607.19;;;12.79;45.53
35778;BME280;21899;42.662;23.316;2023-03-07T09:58:50;93605.78;;;12.90;44.65
35778;BME280;21899;42.662;23.316;2023-03-07T10:01:20;93600.97;;;13.01;44.49
35778;BME280;21899;42.662;23.316;2023-03-07T10:03:58;93600.88;;;13.21;44.19
35778;BME280;21899;42.662;23.316;2023-03-07T10:06:37;93592.59;;;13.32;43.43
35778;BME280;21899;42.662;23.316;2023-03-07T10:09:06;93596.63;;;13.40;43.19
35778;BME280;21899;42.662;23.316;2023-03-07T10:17:49;93571.69;;;13.84;41.44
35778;BME280;21899;42.662;23.316;2023-03-07T10:20:38;93577.69;;;14.04;40.60
35778;BME280;21899;42.662;23.316;2023-03-07T10:28:24;93575.25;;;14.38;38.80
35778;BME280;21899;42.662;23.316;2023-03-07T10:30:55;93576.13;;;14.19;38.46
35778;BME280;21899;42.662;23.316;2023-03-07T10:33:21;93566.84;;;14.07;39.10
35778;BME280;21899;42.662;23.316;2023-03-07T10:36:27;93570.22;;;14.24;39.15
35778;BME280;21899;42.662;23.316;2023-03-07T10:41:24;93548.41;;;14.34;39.03
35778;BME280;21899;42.662;23.316;2023-03-07T10:43:50;93553.09;;;14.47;38.78
35778;BME280;21899;42.662;23.316;2023-03-07T10:46:27;93543.13;;;14.72;38.73
35778;BME280;21899;42.662;23.316;2023-03-07T10:49:07;93533.63;;;14.93;37.85
35778;BME280;21899;42.662;23.316;2023-03-07T10:54:20;93532.84;;;15.42;36.08
35778;BME280;21899;42.662;23.316;2023-03-07T10:57:16;93525.47;;;15.55;35.73
35778;BME280;21899;42.662;23.316;2023-03-07T10:59:46;93517.16;;;15.62;35.66
35778;BME280;21899;42.662;23.316;2023-03-07T11:02:34;93513.81;;;15.58;35.38
35778;BME280;21899;42.662;23.316;2023-03-07T11:05:01;93512.47;;;15.76;34.84
35778;BME280;21899;42.662;23.316;2023-03-07T11:07:31;93508.88;;;15.79;33.80
35778;BME280;21899;42.662;23.316;2023-03-07T11:09:59;93491.03;;;15.94;33.56
35778;BME280;21899;42.662;23.316;2023-03-07T11:12:27;93484.38;;;16.07;32.91
35778;BME280;21899;42.662;23.316;2023-03-07T11:15:16;93483.56;;;16.19;32.46
35778;BME280;21899;42.662;23.316;2023-03-07T11:17:44;93476.56;;;16.31;31.91
35778;BME280;21899;42.662;23.316;2023-03-07T11:20:26;93478.97;;;16.29;32.04
35778;BME280;21899;42.662;23.316;2023-03-07T11:23:12;93471.19;;;15.66;32.90
35778;BME280;21899;42.662;23.316;2023-03-07T11:25:38;93452.97;;;15.57;32.61
35778;BME280;21899;42.662;23.316;2023-03-07T11:30:52;93453.66;;;15.36;33.19
35778;BME280;21899;42.662;23.316;2023-03-07T11:36:10;93439.56;;;15.67;33.17
35778;BME280;21899;42.662;23.316;2023-03-07T11:55:32;93450.09;;;16.78;31.90
35778;BME280;21899;42.662;23.316;2023-03-07T11:58:26;93449.19;;;16.72;31.82
35778;BME280;21899;42.662;23.316;2023-03-07T12:06:26;93445.06;;;16.28;31.56
35778;BME280;21899;42.662;23.316;2023-03-07T12:09:11;93432.50;;;16.12;31.59
35778;BME280;21899;42.662;23.316;2023-03-07T12:12:00;93442.69;;;15.87;32.34
35778;BME280;21899;42.662;23.316;2023-03-07T12:14:46;93441.81;;;15.68;32.43
35778;BME280;21899;42.662;23.316;2023-03-07T12:18:01;93425.56;;;15.59;31.86
35778;BME280;21899;42.662;23.316;2023-03-07T12:23:22;93423.75;;;15.78;30.88
35778;BME280;21899;42.662;23.316;2023-03-07T12:25:52;93431.03;;;15.68;31.12
35778;BME280;21899;42.662;23.316;2023-03-07T12:31:00;93432.97;;;15.89;31.00
35778;BME280;21899;42.662;23.316;2023-03-07T12:33:52;93420.25;;;15.90;31.33
35778;BME280;21899;42.662;23.316;2023-03-07T12:36:59;93415.44;;;15.94;31.19
35778;BME280;21899;42.662;23.316;2023-03-07T12:42:17;93402.72;;;15.94;31.17
35778;BME280;21899;42.662;23.316;2023-03-07T12:47:24;93414.19;;;16.38;30.80
35778;BME280;21899;42.662;23.316;2023-03-07T12:50:18;93417.03;;;16.65;30.19
35778;BME280;21899;42.662;23.316;2023-03-07T12:52:51;93402.66;;;16.86;29.76
35778;BME280;21899;42.662;23.316;2023-03-07T12:55:46;93406.63;;;17.03;29.25
35778;BME280;21899;42.662;23.316;2023-03-07T12:58:21;93406.03;;;17.08;28.99
35778;BME280;21899;42.662;23.316;2023-03-07T13:01:02;93409.63;;;17.05;28.02
35778;BME280;21899;42.662;23.316;2023-03-07T13:06:05;93396.97;;;16.84;28.27
35778;BME280;21899;42.662;23.316;2023-03-07T13:08:33;93399.34;;;16.73;28.62
35778;BME280;21899;42.662;23.316;2023-03-07T13:10:59;93409.88;;;16.80;28.69
35778;BME280;21899;42.662;23.316;2023-03-07T13:16:12;93400.56;;;16.81;28.78
35778;BME280;21899;42.662;23.316;2023-03-07T13:18:38;93401.19;;;16.85;28.63
35778;BME280;21899;42.662;23.316;2023-03-07T13:21:09;93391.56;;;16.93;28.61
35778;BME280;21899;42.662;23.316;2023-03-07T13:23:34;93383.75;;;16.77;28.51
35778;BME280;21899;42.662;23.316;2023-03-07T13:26:03;93397.22;;;16.68;29.24
35778;BME280;21899;42.662;23.316;2023-03-07T13:33:42;93387.28;;;16.56;29.55
35778;BME280;21899;42.662;23.316;2023-03-07T13:36:31;93397.97;;;16.68;29.74
35778;BME280;21899;42.662;23.316;2023-03-07T13:38:57;93393.34;;;16.69;29.52
35778;BME280;21899;42.662;23.316;2023-03-07T13:41:44;93396.81;;;16.87;29.25
35778;BME280;21899;42.662;23.316;2023-03-07T13:44:28;93402.53;;;16.89;29.54
35778;BME280;21899;42.662;23.316;2023-03-07T13:46:55;93401.78;;;16.89;29.68
35778;BME280;21899;42.662;23.316;2023-03-07T13:49:39;93402.69;;;16.95;29.42
35778;BME280;21899;42.662;23.316;2023-03-07T13:52:15;93394.28;;;16.93;29.92
35778;BME280;21899;42.662;23.316;2023-03-07T13:54:48;93393.38;;;16.87;29.90
35778;BME280;21899;42.662;23.316;2023-03-07T13:57:18;93392.78;;;17.01;29.93
35778;BME280;21899;42.662;23.316;2023-03-07T13:59:48;93399.09;;;16.89;29.64
35778;BME280;21899;42.662;23.316;2023-03-07T14:02:16;93386.97;;;16.54;29.70
35778;BME280;21899;42.662;23.316;2023-03-07T14:04:45;93382.28;;;16.45;29.84
35778;BME280;21899;42.662;23.316;2023-03-07T14:07:29;93382.19;;;16.27;30.25
35778;BME280;21899;42.662;23.316;2023-03-07T14:26:28;93396.09;;;16.17;30.79
35778;BME280;21899;42.662;23.316;2023-03-07T14:29:01;93390.75;;;16.26;30.60
35778;BME280;21899;42.662;23.316;2023-03-07T14:31:30;93395.81;;;16.24;30.68
35778;BME280;21899;42.662;23.316;2023-03-07T14:33:56;93402.69;;;16.16;30.92
35778;BME280;21899;42.662;23.316;2023-03-07T14:36:28;93404.97;;;15.96;31.30
35778;BME280;21899;42.662;23.316;2023-03-07T14:38:57;93405.31;;;15.76;31.60
35778;BME280;21899;42.662;23.316;2023-03-07T14:44:05;93402.97;;;15.65;32.08